createdAt,value
2018-06-29T00:00:01.215Z,15.35
2018-06-29T00:02:30.297Z,15.32
2018-06-29T00:04:58.802Z,15.32
2018-06-29T00:07:27.331Z,15.31
2018-06-29T00:09:56.257Z,15.30
2018-06-29T00:12:24.686Z,15.29
2018-06-29T00:14:53.341Z,15.29
2018-06-29T00:17:22.822Z,15.25
2018-06-29T00:19:51.230Z,15.26
2018-06-29T00:22:19.742Z,15.30
2018-06-29T00:24:49.093Z,15.30
2018-06-29T00:27:17.521Z,15.26
2018-06-29T00:29:46.157Z,15.16
2018-06-29T00:32:14.750Z,15.05
2018-06-29T00:34:43.281Z,14.87
2018-06-29T00:37:12.320Z,14.71
2018-06-29T00:39:41.013Z,14.60
2018-06-29T00:42:09.425Z,14.52
2018-06-29T00:44:37.922Z,14.43
2018-06-29T00:47:06.530Z,14.32
2018-06-29T00:49:35.037Z,14.21
2018-06-29T00:52:04.457Z,14.11
2018-06-29T00:54:33.947Z,14.05
2018-06-29T00:57:02.374Z,13.95
2018-06-29T00:59:30.846Z,13.87
2018-06-29T01:01:59.490Z,13.81
2018-06-29T01:04:28.001Z,13.78
2018-06-29T01:06:57.237Z,13.72
2018-06-29T01:09:25.848Z,13.68
2018-06-29T01:11:54.281Z,13.64
2018-06-29T01:14:22.751Z,13.60
2018-06-29T01:16:51.873Z,13.56
2018-06-29T01:19:20.393Z,13.54
2018-06-29T01:21:48.879Z,13.50
2018-06-29T01:24:17.421Z,13.47
2018-06-29T01:26:46.227Z,13.45
2018-06-29T01:29:14.712Z,13.39
2018-06-29T01:31:43.374Z,13.31
2018-06-29T01:34:12.337Z,13.29
2018-06-29T01:36:40.794Z,13.26
2018-06-29T01:39:10.223Z,13.26
2018-06-29T01:41:39.238Z,13.25
2018-06-29T01:44:07.740Z,13.26
2018-06-29T01:46:36.277Z,13.23
2018-06-29T01:49:05.110Z,12.33
2018-06-29T01:51:33.681Z,13.26
2018-06-29T01:54:02.207Z,13.27
2018-06-29T01:56:30.699Z,13.29
2018-06-29T01:59:00.158Z,13.32
2018-06-29T02:01:29.041Z,13.32
2018-06-29T02:03:58.529Z,13.36
2018-06-29T02:06:27.054Z,13.39
2018-06-29T02:08:55.673Z,13.40
2018-06-29T02:11:24.137Z,13.39
2018-06-29T02:13:52.865Z,13.37
2018-06-29T02:16:21.606Z,13.32
2018-06-29T02:18:50.341Z,13.32
2018-06-29T02:21:18.996Z,13.32
2018-06-29T02:23:48.529Z,13.32
2018-06-29T02:26:16.949Z,13.28
2018-06-29T02:28:46.041Z,13.23
2018-06-29T02:31:14.781Z,13.20
2018-06-29T02:33:43.197Z,13.18
2018-06-29T02:36:12.009Z,13.16
2018-06-29T02:38:40.743Z,13.15
2018-06-29T02:41:09.491Z,13.14
2018-06-29T02:43:39.717Z,13.13
2018-06-29T02:46:08.215Z,13.13
2018-06-29T02:48:36.709Z,13.14
2018-06-29T02:51:05.385Z,13.16
2018-06-29T02:53:33.878Z,13.16
2018-06-29T02:56:02.325Z,13.18
2018-06-29T02:58:30.842Z,13.20
2018-06-29T03:00:59.873Z,13.21
2018-06-29T03:03:29.184Z,13.20
2018-06-29T03:05:58.106Z,13.22
2018-06-29T03:08:27.021Z,13.23
2018-06-29T03:10:55.461Z,13.20
2018-06-29T03:13:23.904Z,13.20
2018-06-29T03:15:52.333Z,13.18
2018-06-29T03:18:20.770Z,13.20
2018-06-29T03:20:49.469Z,13.21
2018-06-29T03:23:17.885Z,13.22
2018-06-29T03:25:46.527Z,13.24
2018-06-29T03:28:15.189Z,13.24
2018-06-29T03:30:43.682Z,13.25
2018-06-29T03:33:12.126Z,13.27
2018-06-29T03:35:40.769Z,13.30
2018-06-29T03:38:10.093Z,13.32
2018-06-29T03:40:39.156Z,13.32
2018-06-29T03:43:07.626Z,13.35
2018-06-29T03:45:37.840Z,13.37
2018-06-29T03:48:06.281Z,13.41
2018-06-29T03:50:35.029Z,13.45
2018-06-29T03:53:03.873Z,13.46
2018-06-29T03:55:32.317Z,13.43
2018-06-29T03:58:01.102Z,13.42
2018-06-29T04:00:29.650Z,13.40
2018-06-29T04:02:58.132Z,13.39
2018-06-29T04:05:26.765Z,13.40
2018-06-29T04:07:55.370Z,13.39
2018-06-29T04:10:23.854Z,13.40
2018-06-29T04:12:52.579Z,13.41
2018-06-29T04:15:21.238Z,13.42
2018-06-29T04:17:49.714Z,13.41
2018-06-29T04:20:18.340Z,13.42
2018-06-29T04:22:47.517Z,13.46
2018-06-29T04:25:16.006Z,13.50
2018-06-29T04:27:45.113Z,13.59
2018-06-29T04:30:14.561Z,13.69
2018-06-29T04:32:43.609Z,13.78
2018-06-29T04:35:12.598Z,13.92
2018-06-29T04:37:41.462Z,14.02
2018-06-29T04:40:10.106Z,14.14
2018-06-29T04:42:38.761Z,14.29
2018-06-29T04:45:07.518Z,14.41
2018-06-29T04:47:36.645Z,14.49
2018-06-29T04:50:05.241Z,14.56
2018-06-29T04:52:33.787Z,14.64
2018-06-29T04:55:04.198Z,14.67
2018-06-29T04:57:32.902Z,14.74
2018-06-29T05:00:01.422Z,14.79
2018-06-29T05:02:30.590Z,14.87
2018-06-29T05:04:59.351Z,14.89
2018-06-29T05:07:27.969Z,14.93
2018-06-29T05:09:56.529Z,14.94
2018-06-29T05:12:25.133Z,15.00
2018-06-29T05:14:53.645Z,15.04
2018-06-29T05:17:22.069Z,15.05
2018-06-29T05:19:50.829Z,15.06
2018-06-29T05:22:19.365Z,15.02
2018-06-29T05:24:48.219Z,15.03
2018-06-29T05:27:17.269Z,15.01
2018-06-29T05:29:46.000Z,14.95
2018-06-29T05:32:14.437Z,14.93
2018-06-29T05:34:43.401Z,14.89
2018-06-29T05:37:12.159Z,14.84
2018-06-29T05:39:40.641Z,14.81
2018-06-29T05:42:09.307Z,14.79
2018-06-29T05:44:38.086Z,14.81
2018-06-29T05:47:06.570Z,14.87
2018-06-29T05:49:35.340Z,14.91
2018-06-29T05:52:03.952Z,14.96
2018-06-29T05:54:32.373Z,14.97
2018-06-29T05:57:01.077Z,15.00
2018-06-29T05:59:29.949Z,14.98
2018-06-29T06:01:58.423Z,15.01
2018-06-29T06:04:26.991Z,15.02
2018-06-29T06:06:55.730Z,15.02
2018-06-29T06:09:24.193Z,15.02
2018-06-29T06:11:53.211Z,15.01
2018-06-29T06:14:21.798Z,15.02
2018-06-29T06:16:50.493Z,14.80
2018-06-29T06:19:30.298Z,15.00
2018-06-29T06:21:59.592Z,15.06
2018-06-29T06:24:27.973Z,15.11
2018-06-29T06:26:57.169Z,15.09
2018-06-29T06:29:25.597Z,15.08
2018-06-29T06:31:54.022Z,15.09
2018-06-29T06:34:22.553Z,15.13
2018-06-29T06:36:50.985Z,15.17
2018-06-29T06:39:19.417Z,15.20
2018-06-29T06:41:48.236Z,15.22
2018-06-29T06:44:16.731Z,15.20
2018-06-29T06:46:45.182Z,15.25
2018-06-29T06:49:14.133Z,15.36
2018-06-29T06:51:42.561Z,15.42
2018-06-29T06:54:10.990Z,15.46
2018-06-29T06:56:39.798Z,15.45
2018-06-29T06:59:08.221Z,15.46
2018-06-29T07:01:36.677Z,15.46
2018-06-29T07:04:05.865Z,15.46
2018-06-29T07:06:34.286Z,15.44
2018-06-29T07:09:02.725Z,15.46
2018-06-29T07:11:31.623Z,15.48
2018-06-29T07:14:00.217Z,15.50
2018-06-29T07:16:28.720Z,15.57
2018-06-29T07:18:57.693Z,15.66
2018-06-29T07:21:26.351Z,15.70
2018-06-29T07:23:54.912Z,15.76
2018-06-29T07:26:23.470Z,15.79
2018-06-29T07:28:52.134Z,15.88
2018-06-29T07:31:20.625Z,15.91
2018-06-29T07:33:49.301Z,15.97
2018-06-29T07:36:18.413Z,15.98
2018-06-29T07:38:46.841Z,16.00
2018-06-29T07:41:15.609Z,16.03
2018-06-29T07:43:44.569Z,16.16
2018-06-29T07:46:13.014Z,16.28
2018-06-29T07:48:41.919Z,16.37
2018-06-29T07:51:10.486Z,16.49
2018-06-29T07:53:38.909Z,16.61
2018-06-29T07:56:07.660Z,16.78
2018-06-29T07:58:36.226Z,16.92
2018-06-29T08:01:06.248Z,17.00
2018-06-29T08:03:35.757Z,17.01
2018-06-29T08:06:05.073Z,17.07
2018-06-29T08:08:33.508Z,17.07
2018-06-29T08:11:02.058Z,17.13
2018-06-29T08:13:31.215Z,17.13
2018-06-29T08:15:59.869Z,17.02
2018-06-29T08:18:28.687Z,16.91
2018-06-29T08:20:57.739Z,16.82
2018-06-29T08:23:33.613Z,16.69
2018-06-29T08:26:14.368Z,16.50
2018-06-29T08:28:43.319Z,16.40
2018-06-29T08:31:13.021Z,16.43
2018-06-29T08:33:41.469Z,16.50
2018-06-29T08:36:10.291Z,16.49
2018-06-29T08:38:39.175Z,16.43
2018-06-29T08:41:07.952Z,16.35
2018-06-29T08:43:36.593Z,16.37
2018-06-29T08:46:05.457Z,16.44
2018-06-29T08:48:33.965Z,16.43
2018-06-29T08:51:02.678Z,16.46
2018-06-29T08:53:32.494Z,16.52
2018-06-29T08:56:01.883Z,16.52
2018-06-29T08:58:31.226Z,16.48
2018-06-29T09:01:00.509Z,16.56
2018-06-29T09:03:28.961Z,16.75
2018-06-29T09:05:57.475Z,16.91
2018-06-29T09:08:26.358Z,16.99
2018-06-29T09:10:54.821Z,17.03
2018-06-29T09:13:23.342Z,17.06
2018-06-29T09:15:52.136Z,16.97
2018-06-29T09:18:20.693Z,16.98
2018-06-29T09:20:49.493Z,17.08
2018-06-29T09:23:18.158Z,17.16
2018-06-29T09:25:46.622Z,17.57
2018-06-29T09:28:15.206Z,18.65
2018-06-29T09:30:43.910Z,19.28
2018-06-29T09:33:12.706Z,19.93
2018-06-29T09:35:42.107Z,20.18
2018-06-29T09:38:10.882Z,19.98
2018-06-29T09:40:39.312Z,19.57
2018-06-29T09:43:08.269Z,19.22
2018-06-29T09:45:36.962Z,18.85
2018-06-29T09:48:05.679Z,18.45
2018-06-29T09:50:34.396Z,18.20
2018-06-29T09:53:02.985Z,18.32
2018-06-29T09:55:31.554Z,18.95
2018-06-29T09:58:00.249Z,19.55
2018-06-29T10:00:30.617Z,19.67
2018-06-29T10:02:59.631Z,19.31
2018-06-29T10:05:28.590Z,18.96
2018-06-29T10:07:57.516Z,18.75
2018-06-29T10:10:25.985Z,18.61
2018-06-29T10:12:54.492Z,18.99
2018-06-29T10:15:23.461Z,19.34
2018-06-29T10:17:51.900Z,19.72
2018-06-29T10:20:20.506Z,19.93
2018-06-29T10:22:49.088Z,20.05
2018-06-29T10:25:17.732Z,20.31
2018-06-29T10:27:46.362Z,21.05
2018-06-29T10:30:15.238Z,21.76
2018-06-29T10:32:44.125Z,21.41
2018-06-29T10:35:13.338Z,22.12
2018-06-29T10:37:41.989Z,22.40
2018-06-29T10:40:11.991Z,22.60
2018-06-29T10:42:42.075Z,22.74
2018-06-29T10:45:12.093Z,22.42
2018-06-29T10:47:40.534Z,22.17
2018-06-29T10:50:09.541Z,22.23
2018-06-29T10:52:38.005Z,22.79
2018-06-29T10:55:06.599Z,23.39
2018-06-29T10:57:35.060Z,23.91
2018-06-29T11:00:03.660Z,24.17
2018-06-29T11:02:32.232Z,24.46
2018-06-29T11:05:01.918Z,24.71
2018-06-29T11:07:30.404Z,24.63
2018-06-29T11:09:59.040Z,24.74
2018-06-29T11:12:27.589Z,24.76
2018-06-29T11:14:59.641Z,24.50
2018-06-29T11:17:29.006Z,24.66
2018-06-29T11:19:57.433Z,25.23
2018-06-29T11:22:26.163Z,25.35
2018-06-29T11:24:55.214Z,25.24
2018-06-29T11:27:23.727Z,25.22
2018-06-29T11:29:52.152Z,24.83
2018-06-29T11:32:21.297Z,24.02
2018-06-29T11:34:49.848Z,23.32
2018-06-29T11:37:18.506Z,22.62
2018-06-29T11:39:47.445Z,21.99
2018-06-29T11:42:15.873Z,22.00
2018-06-29T11:44:44.310Z,22.25
2018-06-29T11:47:13.198Z,22.15
2018-06-29T11:49:41.979Z,22.11
2018-06-29T11:52:10.457Z,21.89
2018-06-29T11:54:39.242Z,21.53
2018-06-29T11:57:07.687Z,21.44
2018-06-29T11:59:36.137Z,21.26
2018-06-29T12:02:05.329Z,20.99
2018-06-29T12:04:34.017Z,21.43
2018-06-29T12:07:02.475Z,22.21
2018-06-29T12:09:31.166Z,22.21
2018-06-29T12:11:59.593Z,21.85
2018-06-29T12:14:28.047Z,21.71
2018-06-29T12:16:56.682Z,22.17
2018-06-29T12:19:25.166Z,22.70
2018-06-29T12:21:53.593Z,23.33
2018-06-29T12:24:22.469Z,24.01
2018-06-29T12:26:50.901Z,24.60
2018-06-29T12:29:19.349Z,24.95
2018-06-29T12:31:48.501Z,25.09
2018-06-29T12:34:16.906Z,25.24
2018-06-29T12:36:45.425Z,24.81
2018-06-29T12:39:14.733Z,24.17
2018-06-29T12:41:43.497Z,23.44
2018-06-29T12:44:12.020Z,23.15
2018-06-29T12:46:40.662Z,23.07
2018-06-29T12:49:09.097Z,23.85
2018-06-29T12:51:37.701Z,24.74
2018-06-29T12:54:06.969Z,25.18
2018-06-29T12:56:35.600Z,24.50
2018-06-29T12:59:04.090Z,23.72
2018-06-29T13:01:32.930Z,23.48
2018-06-29T13:04:01.607Z,23.96
2018-06-29T13:06:30.183Z,24.75
2018-06-29T13:08:59.249Z,25.57
2018-06-29T13:11:28.654Z,26.31
2018-06-29T13:13:57.090Z,26.75
2018-06-29T13:16:25.849Z,26.93
2018-06-29T13:18:54.628Z,26.80
2018-06-29T13:21:23.105Z,26.68
2018-06-29T13:23:52.003Z,26.05
2018-06-29T13:26:21.138Z,25.58
2018-06-29T13:28:49.653Z,25.81
2018-06-29T13:31:18.252Z,25.21
2018-06-29T13:33:47.113Z,24.72
2018-06-29T13:36:15.599Z,24.63
2018-06-29T13:38:44.333Z,24.22
2018-06-29T13:41:13.010Z,24.11
2018-06-29T13:43:41.453Z,23.51
2018-06-29T13:46:10.139Z,22.92
2018-06-29T13:48:38.668Z,23.67
2018-06-29T13:51:07.161Z,25.07
2018-06-29T13:53:35.685Z,26.11
2018-06-29T13:56:04.330Z,27.11
2018-06-29T13:58:32.829Z,27.68
2018-06-29T14:01:01.394Z,27.39
2018-06-29T14:03:30.057Z,26.57
2018-06-29T14:05:58.501Z,26.33
2018-06-29T14:08:27.145Z,25.68
2018-06-29T14:10:55.826Z,24.83
2018-06-29T14:13:24.255Z,23.96
2018-06-29T14:15:53.182Z,23.35
2018-06-29T14:18:21.985Z,22.81
2018-06-29T14:20:50.709Z,22.49
2018-06-29T14:23:19.265Z,22.73
2018-06-29T14:25:47.773Z,23.83
2018-06-29T14:28:16.427Z,24.25
2018-06-29T14:30:45.196Z,24.29
2018-06-29T14:33:14.031Z,23.82
2018-06-29T14:35:42.533Z,23.18
2018-06-29T14:38:11.358Z,22.53
2018-06-29T14:40:39.787Z,22.10
2018-06-29T14:43:08.539Z,22.33
2018-06-29T14:45:37.048Z,23.62
2018-06-29T14:48:06.014Z,23.87
2018-06-29T14:50:35.243Z,23.84
2018-06-29T14:53:03.753Z,23.33
2018-06-29T14:55:32.570Z,22.61
2018-06-29T14:58:01.878Z,22.34
2018-06-29T15:00:31.962Z,21.93
2018-06-29T15:03:01.349Z,21.62
2018-06-29T15:05:30.081Z,21.86
2018-06-29T15:07:58.714Z,23.23
2018-06-29T15:10:27.215Z,24.51
2018-06-29T15:12:55.650Z,25.74
2018-06-29T15:15:24.132Z,26.89
2018-06-29T15:17:52.770Z,27.64
2018-06-29T15:20:21.332Z,27.67
2018-06-29T15:22:50.055Z,26.58
2018-06-29T15:25:18.600Z,25.37
2018-06-29T15:27:47.069Z,24.35
2018-06-29T15:30:15.731Z,23.89
2018-06-29T15:32:44.242Z,24.46
2018-06-29T15:35:12.929Z,25.33
2018-06-29T15:37:41.433Z,26.18
2018-06-29T15:40:10.031Z,26.79
2018-06-29T15:42:38.997Z,27.13
2018-06-29T15:45:07.781Z,27.23
2018-06-29T15:47:36.310Z,26.48
2018-06-29T15:50:05.221Z,25.34
2018-06-29T15:52:33.949Z,25.14
2018-06-29T15:55:02.454Z,24.60
2018-06-29T15:57:31.933Z,23.98
2018-06-29T16:00:01.162Z,24.58
2018-06-29T16:02:29.617Z,25.49
2018-06-29T16:04:58.085Z,26.43
2018-06-29T16:07:26.641Z,26.64
2018-06-29T16:09:55.439Z,25.87
2018-06-29T16:12:23.940Z,24.66
2018-06-29T16:14:52.393Z,23.78
2018-06-29T16:17:20.904Z,23.03
2018-06-29T16:19:49.861Z,22.41
2018-06-29T16:22:18.346Z,22.40
2018-06-29T16:24:46.813Z,22.68
2018-06-29T16:27:15.301Z,22.28
2018-06-29T16:29:44.229Z,21.97
2018-06-29T16:32:12.837Z,22.45
2018-06-29T16:34:41.281Z,22.88
2018-06-29T16:37:09.763Z,22.53
2018-06-29T16:39:38.222Z,21.96
2018-06-29T16:42:06.698Z,21.85
2018-06-29T16:44:35.212Z,22.13
2018-06-29T16:47:04.208Z,22.43
2018-06-29T16:49:32.678Z,22.46
2018-06-29T16:52:01.971Z,22.08
2018-06-29T16:54:31.078Z,21.82
2018-06-29T16:56:59.769Z,21.41
2018-06-29T16:59:28.397Z,20.99
2018-06-29T17:01:57.016Z,20.62
2018-06-29T17:04:25.877Z,20.37
2018-06-29T17:06:54.346Z,20.04
2018-06-29T17:09:22.983Z,19.77
2018-06-29T17:11:51.606Z,19.60
2018-06-29T17:14:20.281Z,19.44
2018-06-29T17:16:48.802Z,19.40
2018-06-29T17:19:24.135Z,19.35
2018-06-29T17:21:53.041Z,19.27
2018-06-29T17:24:21.482Z,19.22
2018-06-29T17:26:50.311Z,19.16
2018-06-29T17:29:18.787Z,19.12
2018-06-29T17:31:47.237Z,19.04
2018-06-29T17:34:16.110Z,18.91
2018-06-29T17:36:44.662Z,18.83
2018-06-29T17:39:13.101Z,18.76
2018-06-29T17:41:41.809Z,18.70
2018-06-29T17:44:10.349Z,18.61
2018-06-29T17:46:39.055Z,18.50
2018-06-29T17:49:07.961Z,18.44
2018-06-29T17:51:36.510Z,18.35
2018-06-29T17:54:05.035Z,18.17
2018-06-29T17:56:33.844Z,17.98
2018-06-29T17:59:02.397Z,17.83
2018-06-29T18:01:30.817Z,17.68
2018-06-29T18:03:59.670Z,17.56
2018-06-29T18:06:28.237Z,17.48
2018-06-29T18:08:56.713Z,17.41
2018-06-29T18:11:25.358Z,17.36
2018-06-29T18:13:53.994Z,17.39
2018-06-29T18:16:22.445Z,17.38
2018-06-29T18:18:51.295Z,17.38
2018-06-29T18:21:19.825Z,17.31
2018-06-29T18:23:48.241Z,17.30
2018-06-29T18:26:16.866Z,17.28
2018-06-29T18:28:45.509Z,17.23
2018-06-29T18:31:14.033Z,17.18
2018-06-29T18:33:43.306Z,17.14
2018-06-29T18:36:12.403Z,17.09
2018-06-29T18:38:40.825Z,17.05
2018-06-29T18:41:09.401Z,16.99
2018-06-29T18:43:37.909Z,16.95
2018-06-29T18:46:06.515Z,16.92
2018-06-29T18:48:35.238Z,16.89
2018-06-29T18:51:04.042Z,16.83
2018-06-29T18:53:32.571Z,16.77
2018-06-29T18:56:02.126Z,16.72
2018-06-29T18:58:30.597Z,16.68
2018-06-29T19:00:59.337Z,16.69
2018-06-29T19:03:28.061Z,16.64
2018-06-29T19:05:56.761Z,16.62
2018-06-29T19:08:25.317Z,16.55
2018-06-29T19:10:53.877Z,16.51
2018-06-29T19:13:22.417Z,16.44
2018-06-29T19:15:51.001Z,16.40
2018-06-29T19:18:19.554Z,16.38
2018-06-29T19:20:47.989Z,16.36
2018-06-29T19:23:16.609Z,16.33
2018-06-29T19:25:45.394Z,16.30
2018-06-29T19:28:13.872Z,16.28
2018-06-29T19:30:42.400Z,16.28
2018-06-29T19:33:11.220Z,16.27
2018-06-29T19:35:39.871Z,16.24
2018-06-29T19:38:08.683Z,16.20
2018-06-29T19:40:37.626Z,16.16
2018-06-29T19:43:06.093Z,16.14
2018-06-29T19:45:34.932Z,16.07
2018-06-29T19:48:03.681Z,14.15
2018-06-29T19:50:32.126Z,15.99
2018-06-29T19:53:01.796Z,15.91
2018-06-29T19:55:30.854Z,15.86
2018-06-29T19:57:59.573Z,15.01
2018-06-29T20:00:29.045Z,15.79
2018-06-29T20:02:57.586Z,15.73
2018-06-29T20:05:26.097Z,15.69
2018-06-29T20:07:54.901Z,15.64
2018-06-29T20:10:23.699Z,15.63
2018-06-29T20:12:52.409Z,15.62
2018-06-29T20:15:21.032Z,15.64
2018-06-29T20:17:49.729Z,15.64
2018-06-29T20:20:18.268Z,15.60
2018-06-29T20:22:49.811Z,15.58
2018-06-29T20:25:18.405Z,15.56
2018-06-29T20:27:47.014Z,15.52
2018-06-29T20:30:15.486Z,15.53
2018-06-29T20:32:43.993Z,15.50
2018-06-29T20:35:12.427Z,15.45
2018-06-29T20:37:40.858Z,15.42
2018-06-29T20:40:10.299Z,15.39
2018-06-29T20:42:39.016Z,15.38
2018-06-29T20:45:08.069Z,15.37
2018-06-29T20:47:36.498Z,15.36
2018-06-29T20:50:05.930Z,15.34
2018-06-29T20:52:34.809Z,15.30
2018-06-29T20:55:03.436Z,15.27
2018-06-29T20:57:31.897Z,15.27
2018-06-29T21:00:00.357Z,15.26
2018-06-29T21:02:28.969Z,15.24
2018-06-29T21:04:57.462Z,15.25
2018-06-29T21:07:25.949Z,15.21
2018-06-29T21:09:54.510Z,15.18
2018-06-29T21:12:23.630Z,15.14
2018-06-29T21:14:52.178Z,15.13
2018-06-29T21:17:21.009Z,15.11
2018-06-29T21:19:49.723Z,15.09
2018-06-29T21:22:18.181Z,15.08
2018-06-29T21:24:46.593Z,15.04
2018-06-29T21:27:15.727Z,15.02
2018-06-29T21:29:44.688Z,15.01
2018-06-29T21:32:13.293Z,15.00
2018-06-29T21:34:41.838Z,15.00
2018-06-29T21:37:10.344Z,14.98
2018-06-29T21:39:39.082Z,14.96
2018-06-29T21:42:08.102Z,14.95
2018-06-29T21:44:36.556Z,14.92
2018-06-29T21:47:05.309Z,14.92
2018-06-29T21:49:33.741Z,14.91
2018-06-29T21:52:02.202Z,14.90
2018-06-29T21:54:31.258Z,14.89
2018-06-29T21:57:00.281Z,14.89
2018-06-29T21:59:28.793Z,14.88
2018-06-29T22:01:57.417Z,14.85
2018-06-29T22:04:25.930Z,14.82
2018-06-29T22:06:54.436Z,14.78
2018-06-29T22:09:22.988Z,14.71
2018-06-29T22:11:51.602Z,14.66
2018-06-29T22:14:20.094Z,14.59
2018-06-29T22:16:49.097Z,14.53
2018-06-29T22:19:17.541Z,14.47
2018-06-29T22:21:46.024Z,14.38
2018-06-29T22:24:14.826Z,14.30
2018-06-29T22:26:43.246Z,14.21
2018-06-29T22:29:11.721Z,14.14
2018-06-29T22:31:40.382Z,14.09
2018-06-29T22:34:08.821Z,14.01
2018-06-29T22:36:37.369Z,13.93
2018-06-29T22:39:08.941Z,13.88
2018-06-29T22:41:37.470Z,13.83
2018-06-29T22:44:06.397Z,13.80
2018-06-29T22:46:34.873Z,13.76
2018-06-29T22:49:03.341Z,13.74
2018-06-29T22:51:32.056Z,13.70
2018-06-29T22:54:01.281Z,13.64
2018-06-29T22:56:29.942Z,13.57
2018-06-29T22:58:58.625Z,13.53
2018-06-29T23:01:27.341Z,13.51
2018-06-29T23:03:56.366Z,13.49
2018-06-29T23:06:26.026Z,13.48
2018-06-29T23:08:54.589Z,13.44
2018-06-29T23:11:23.089Z,13.41
2018-06-29T23:13:51.538Z,13.40
2018-06-29T23:16:20.315Z,13.37
2018-06-29T23:18:48.781Z,13.32
2018-06-29T23:21:17.285Z,13.30
2018-06-29T23:23:46.021Z,13.27
2018-06-29T23:26:14.493Z,13.25
2018-06-29T23:28:43.204Z,13.23
2018-06-29T23:31:11.641Z,13.19
2018-06-29T23:33:40.125Z,13.17
2018-06-29T23:36:09.273Z,13.15
2018-06-29T23:38:37.847Z,13.13
2018-06-29T23:41:06.558Z,13.10
2018-06-29T23:43:35.790Z,13.06
2018-06-29T23:46:04.430Z,13.04
2018-06-29T23:48:33.365Z,13.04
2018-06-29T23:51:01.781Z,13.02
2018-06-29T23:53:30.341Z,13.01
2018-06-29T23:55:58.873Z,12.96
2018-06-29T23:58:27.290Z,12.93
